Time;durP1;ratioP1;P1;durP2;ratioP2;P2;SDS_P1;SDS_P2;PMS_P1;PMS_P2;Temp;Humidity;BMP_temperature;BMP_pressure;BME280_temperature;BME280_humidity;BME280_pressure;Samples;Min_cycle;Max_cycle;Signal;HPM_P1;HPM_P2
2022/03/11 00:02:15;;;;;;;24.75;14.30;;;;;;;5.26;52.34;101739.97;5028870;28;20033;-67
2022/03/11 00:04:40;;;;;;;25.15;14.20;;;;;;;5.23;52.38;101743.91;5026341;28;20297;-67
2022/03/11 00:07:05;;;;;;;23.45;14.50;;;;;;;5.20;52.16;101742.34;5031150;28;20048;-67
2022/03/11 00:09:30;;;;;;;25.15;15.00;;;;;;;5.16;53.22;101734.72;5044404;28;20665;-67
2022/03/11 00:11:56;;;;;;;24.20;13.95;;;;;;;5.13;52.73;101735.91;5033732;28;20128;-67
2022/03/11 00:14:21;;;;;;;24.42;14.57;;;;;;;5.08;53.04;101732.88;5042546;28;20029;-67
2022/03/11 00:16:47;;;;;;;22.38;13.38;;;;;;;5.09;52.77;101733.72;5022861;28;20021;-67
2022/03/11 00:19:12;;;;;;;22.98;14.70;;;;;;;5.07;52.33;101722.13;5024033;28;20025;-67
2022/03/11 00:21:37;;;;;;;22.55;13.38;;;;;;;5.07;52.49;101724.84;5022212;28;20041;-67
2022/03/11 00:24:03;;;;;;;23.75;14.13;;;;;;;5.02;53.04;101732.69;5039878;28;20033;-67
2022/03/11 00:26:28;;;;;;;23.70;13.93;;;;;;;5.05;52.74;101722.31;5042787;28;20025;-67
2022/03/11 00:28:54;;;;;;;23.70;14.00;;;;;;;5.09;52.44;101720.94;5034930;28;20109;-67
2022/03/11 00:31:19;;;;;;;24.92;14.80;;;;;;;5.08;52.84;101724.69;5023725;28;20065;-67
2022/03/11 00:33:44;;;;;;;22.83;14.05;;;;;;;5.11;52.54;101729.78;5022509;28;20063;-67
2022/03/11 00:36:10;;;;;;;23.90;13.38;;;;;;;5.15;52.78;101720.25;5028299;28;20028;-67
2022/03/11 00:38:35;;;;;;;23.48;13.45;;;;;;;5.18;52.11;101727.22;5029867;28;20030;-67
2022/03/11 00:41:00;;;;;;;23.35;14.48;;;;;;;5.20;52.10;101722.44;5022564;28;20033;-67
2022/03/11 00:43:26;;;;;;;22.63;13.43;;;;;;;5.19;52.55;101724.31;5023640;28;20460;-67
2022/03/11 00:45:52;;;;;;;23.23;13.65;;;;;;;5.23;52.07;101707.66;5023220;28;20059;-67
2022/03/11 00:48:19;;;;;;;22.05;14.00;;;;;;;5.21;52.12;101714.09;5023411;28;20029;-67
2022/03/11 00:50:45;;;;;;;22.58;12.90;;;;;;;5.20;51.69;101714.28;5022666;28;20142;-67
2022/03/11 00:53:10;;;;;;;23.95;14.45;;;;;;;5.18;51.74;101722.63;5043344;28;20448;-67
2022/03/11 00:55:36;;;;;;;22.10;14.43;;;;;;;5.18;51.88;101713.63;5043111;28;20065;-68
2022/03/11 00:58:01;;;;;;;20.05;12.55;;;;;;;5.17;51.96;101709.16;5035311;28;20025;-67
2022/03/11 01:00:26;;;;;;;25.58;13.25;;;;;;;5.14;52.16;101713.09;5022533;28;20389;-67
2022/03/11 01:02:52;;;;;;;23.13;14.45;;;;;;;5.14;51.73;101713.09;5024862;28;20026;-67
2022/03/11 01:05:17;;;;;;;22.88;13.95;;;;;;;5.11;52.27;101707.16;5023417;28;20045;-67
2022/03/11 01:07:43;;;;;;;24.98;14.10;;;;;;;5.10;52.50;101705.47;5032920;28;20032;-67
2022/03/11 01:10:08;;;;;;;23.42;14.20;;;;;;;5.07;52.57;101703.94;5027558;28;20080;-67
2022/03/11 01:12:35;;;;;;;23.58;13.68;;;;;;;5.04;52.64;101698.00;5022843;28;20399;-67
2022/03/11 01:15:00;;;;;;;21.48;13.20;;;;;;;5.03;52.53;101690.84;5022662;28;20031;-67
2022/03/11 01:17:25;;;;;;;25.42;14.40;;;;;;;5.04;52.17;101695.25;5020464;28;20436;-67
2022/03/11 01:19:51;;;;;;;22.23;13.65;;;;;;;5.01;52.25;101688.28;5022543;28;20036;-67
2022/03/11 01:22:17;;;;;;;21.42;13.25;;;;;;;5.00;52.64;101691.19;5022757;28;20030;-67
2022/03/11 01:24:42;;;;;;;22.40;13.98;;;;;;;5.00;52.53;101683.00;5028634;28;20029;-67
2022/03/11 01:27:07;;;;;;;22.98;14.82;;;;;;;4.97;52.46;101680.63;5040987;28;20035;-67
2022/03/11 01:29:33;;;;;;;24.23;14.98;;;;;;;4.91;53.07;101680.31;5023713;28;20036;-67
2022/03/11 01:31:58;;;;;;;25.23;14.10;;;;;;;4.91;52.19;101676.72;5041421;28;20041;-67
2022/03/11 01:34:23;;;;;;;23.05;15.38;;;;;;;4.88;52.48;101668.94;5040813;28;20035;-67
2022/03/11 01:36:48;;;;;;;22.23;13.63;;;;;;;4.87;52.39;101659.06;5042196;28;20068;-67
2022/03/11 01:39:14;;;;;;;22.42;14.43;;;;;;;4.87;52.78;101664.50;5028601;28;20056;-67
2022/03/11 01:41:39;;;;;;;23.65;13.45;;;;;;;4.84;52.73;101660.25;5033309;28;20037;-67
2022/03/11 01:44:06;;;;;;;23.50;14.50;;;;;;;4.82;52.37;101656.03;5026703;28;20025;-67
2022/03/11 01:46:32;;;;;;;19.80;13.18;;;;;;;4.82;52.28;101651.44;5023395;28;20388;-67
2022/03/11 01:48:59;;;;;;;22.77;13.32;;;;;;;4.81;52.77;101648.84;5022333;28;20032;-67
2022/03/11 01:51:25;;;;;;;21.50;13.75;;;;;;;4.81;52.94;101643.41;5022426;28;20087;-67
2022/03/11 01:53:52;;;;;;;23.58;14.23;;;;;;;4.80;52.83;101642.56;5022490;28;20369;-67
2022/03/11 01:56:17;;;;;;;22.27;14.05;;;;;;;4.80;53.02;101636.28;5020842;28;20108;-67
2022/03/11 01:58:46;;;;;;;23.35;13.63;;;;;;;4.76;53.01;101630.31;5022381;28;20581;-67
2022/03/11 02:01:11;;;;;;;23.77;14.38;;;;;;;4.76;52.93;101621.31;5020304;28;20037;-66
2022/03/11 02:03:36;;;;;;;22.25;14.75;;;;;;;4.72;53.10;101620.84;5036732;28;20381;-67
2022/03/11 02:06:04;;;;;;;24.85;13.75;;;;;;;4.74;52.60;101620.66;5023256;28;20037;-67
2022/03/11 02:08:30;;;;;;;21.97;14.77;;;;;;;4.75;53.18;101617.75;5020295;28;20780;-67
2022/03/11 02:10:55;;;;;;;23.77;13.10;;;;;;;4.73;53.25;101611.63;5021121;28;20035;-67
2022/03/11 02:13:21;;;;;;;21.15;13.48;;;;;;;4.71;53.07;101610.09;5022254;28;20096;-66
2022/03/11 02:15:47;;;;;;;21.95;13.60;;;;;;;4.66;52.90;101607.91;5021484;28;20439;-67
2022/03/11 02:18:12;;;;;;;22.35;14.43;;;;;;;4.63;52.78;101609.09;5019506;28;20048;-67
2022/03/11 02:20:38;;;;;;;23.00;13.80;;;;;;;4.62;53.04;101599.25;5021596;28;20033;-67
2022/03/11 02:23:06;;;;;;;23.25;14.38;;;;;;;4.64;53.13;101591.75;5022290;28;20029;-67
2022/03/11 02:25:32;;;;;;;21.92;13.80;;;;;;;4.63;53.37;101594.66;5039524;28;20025;-67
2022/03/11 02:27:57;;;;;;;23.48;13.77;;;;;;;4.63;52.95;101592.78;5032125;28;20271;-66
2022/03/11 02:30:23;;;;;;;21.55;13.15;;;;;;;4.65;53.07;101596.16;5033848;28;20042;-67
2022/03/11 02:32:49;;;;;;;21.75;13.65;;;;;;;4.67;52.90;101587.84;5021075;28;20076;-67
2022/03/11 02:35:15;;;;;;;20.88;13.45;;;;;;;4.65;53.13;101582.56;5022806;28;20431;-66
2022/03/11 02:37:40;;;;;;;23.30;14.20;;;;;;;4.65;53.15;101585.28;5020891;28;20411;-67
2022/03/11 02:40:07;;;;;;;25.52;14.50;;;;;;;4.61;53.43;101578.53;5024826;28;20029;-67
2022/03/11 02:42:32;;;;;;;21.67;13.10;;;;;;;4.62;52.76;101571.19;5022955;28;20037;-66
2022/03/11 02:44:59;;;;;;;23.80;14.18;;;;;;;4.60;53.36;101574.06;5021642;28;20703;-67
2022/03/11 02:47:25;;;;;;;24.23;13.98;;;;;;;4.60;53.43;101576.78;5027552;28;20056;-67
2022/03/11 02:49:50;;;;;;;21.50;13.50;;;;;;;4.62;52.89;101568.47;5020612;28;20018;-67
2022/03/11 02:52:16;;;;;;;23.67;13.93;;;;;;;4.60;53.27;101565.91;5020940;28;20480;-66
2022/03/11 02:54:41;;;;;;;25.50;14.00;;;;;;;4.59;52.86;101572.38;5021620;28;20021;-67
2022/03/11 02:57:06;;;;;;;23.17;13.80;;;;;;;4.57;53.30;101568.16;5022637;28;20519;-67
2022/03/11 02:59:31;;;;;;;22.33;13.88;;;;;;;4.60;53.48;101565.91;5028018;28;20045;-67
2022/03/11 03:01:57;;;;;;;23.33;13.45;;;;;;;4.65;52.83;101566.25;5024609;28;20136;-67
2022/03/11 03:04:22;;;;;;;24.42;14.10;;;;;;;4.67;52.98;101564.22;5043913;28;20456;-67
2022/03/11 03:06:47;;;;;;;21.83;13.63;;;;;;;4.69;52.74;101566.75;5045898;28;20021;-66
2022/03/11 03:09:12;;;;;;;24.00;13.82;;;;;;;4.68;52.58;101563.19;5026660;28;20376;-66
2022/03/11 03:11:38;;;;;;;23.50;13.38;;;;;;;4.72;52.67;101569.13;5025094;28;20033;-66
2022/03/11 03:14:03;;;;;;;21.80;12.80;;;;;;;4.66;53.18;101565.25;5025582;28;20539;-67
2022/03/11 03:16:29;;;;;;;22.75;14.13;;;;;;;4.65;52.69;101558.06;5027564;28;20036;-67
2022/03/11 03:18:54;;;;;;;24.25;13.88;;;;;;;4.64;52.49;101564.53;5025905;28;20039;-67
2022/03/11 03:21:20;;;;;;;22.38;13.60;;;;;;;4.61;53.01;101559.47;5025590;28;20037;-67
2022/03/11 03:23:45;;;;;;;22.00;13.13;;;;;;;4.62;52.96;101566.59;5025267;28;20056;-67
2022/03/11 03:26:11;;;;;;;22.17;13.20;;;;;;;4.57;53.13;101554.56;5023592;28;20460;-66
2022/03/11 03:28:36;;;;;;;20.40;13.27;;;;;;;4.54;53.17;101557.59;5024833;28;20037;-67
2022/03/11 03:31:02;;;;;;;24.90;13.73;;;;;;;4.51;53.02;101553.38;5023837;28;20028;-67
2022/03/11 03:33:27;;;;;;;22.77;13.32;;;;;;;4.49;53.45;101549.97;5027186;28;20273;-67
2022/03/11 03:35:52;;;;;;;21.38;13.45;;;;;;;4.51;53.44;101555.22;5029666;28;20527;-67
2022/03/11 03:38:17;;;;;;;23.10;13.95;;;;;;;4.52;52.87;101554.22;5026758;28;20037;-67
2022/03/11 03:40:43;;;;;;;22.08;12.98;;;;;;;4.52;52.50;101552.34;5035271;28;20053;-67
2022/03/11 03:43:08;;;;;;;22.15;13.32;;;;;;;4.53;52.76;101543.16;5024440;28;20138;-66
2022/03/11 03:45:33;;;;;;;24.30;13.60;;;;;;;4.55;53.06;101548.41;5024906;28;20049;-67
2022/03/11 03:48:00;;;;;;;21.75;12.80;;;;;;;4.53;52.68;101551.31;5020209;28;20431;-67
2022/03/11 03:50:26;;;;;;;24.08;13.75;;;;;;;4.54;53.31;101544.84;5022755;28;20100;-67
2022/03/11 03:52:51;;;;;;;22.48;13.30;;;;;;;4.51;52.54;101544.34;5024240;28;20068;-67
2022/03/11 03:55:17;;;;;;;23.13;12.85;;;;;;;4.51;53.36;101545.22;5023407;28;20435;-67
2022/03/11 03:57:42;;;;;;;23.70;13.43;;;;;;;4.50;53.21;101545.38;5023900;28;20040;-67
2022/03/11 04:00:08;;;;;;;23.40;12.65;;;;;;;4.48;53.24;101536.53;5023470;28;20506;-67
2022/03/11 04:02:36;;;;;;;20.00;13.07;;;;;;;4.39;53.31;101538.44;5040645;28;20040;-67
2022/03/11 04:05:02;;;;;;;21.52;14.02;;;;;;;4.35;53.68;101543.34;5044118;28;20036;-67
2022/03/11 04:07:27;;;;;;;20.92;12.75;;;;;;;4.37;53.12;101535.03;5041655;28;20025;-67
2022/03/11 04:09:53;;;;;;;22.38;12.90;;;;;;;4.33;53.58;101537.25;5027179;28;20029;-67
2022/03/11 04:12:18;;;;;;;21.10;13.05;;;;;;;4.28;53.89;101534.22;5028864;28;20254;-67
2022/03/11 04:14:43;;;;;;;21.58;12.77;;;;;;;4.23;53.80;101535.75;5043655;28;20036;-68
2022/03/11 04:17:08;;;;;;;21.13;13.23;;;;;;;4.21;53.85;101543.22;5034681;28;20022;-67
2022/03/11 04:19:34;;;;;;;20.50;12.88;;;;;;;4.20;54.14;101531.47;5024249;28;20030;-67
2022/03/11 04:22:00;;;;;;;23.15;12.93;;;;;;;4.18;53.94;101538.13;5024162;28;20593;-67
2022/03/11 04:24:25;;;;;;;21.13;12.82;;;;;;;4.18;54.16;101532.69;5025767;28;20026;-67
2022/03/11 04:26:50;;;;;;;24.20;12.95;;;;;;;4.16;53.84;101528.28;5036691;28;20028;-67
2022/03/11 04:29:16;;;;;;;21.85;13.30;;;;;;;4.11;54.65;101536.09;5022806;28;20040;-67
2022/03/11 04:31:41;;;;;;;23.20;12.95;;;;;;;4.10;54.17;101530.81;5023844;28;20033;-67
2022/03/11 04:34:06;;;;;;;22.50;12.02;;;;;;;4.13;53.93;101531.34;5023897;28;20029;-67
2022/03/11 04:36:38;;;;;;;20.42;12.48;;;;;;;4.13;53.91;101531.34;5038010;28;20029;-67
2022/03/11 04:39:05;;;;;;;24.10;12.63;;;;;;;4.12;54.38;101518.78;5034447;28;20025;-67
2022/03/11 04:41:32;;;;;;;19.15;12.35;;;;;;;4.09;54.31;101527.25;5039048;28;20029;-67
2022/03/11 04:43:58;;;;;;;20.65;12.70;;;;;;;4.04;54.82;101524.19;5043300;28;20260;-67
2022/03/11 04:46:23;;;;;;;19.80;11.95;;;;;;;4.02;54.78;101523.53;5040002;28;20029;-67
2022/03/11 04:48:49;;;;;;;20.38;11.95;;;;;;;4.02;54.22;101522.69;5041782;28;20064;-67
2022/03/11 04:51:15;;;;;;;20.67;12.68;;;;;;;3.98;54.34;101524.06;5027422;28;20017;-67
2022/03/11 04:53:40;;;;;;;19.38;12.73;;;;;;;4.01;54.58;101516.41;5023992;28;20056;-67
2022/03/11 04:56:05;;;;;;;21.27;12.40;;;;;;;4.02;53.87;101526.25;5027648;28;20440;-67
2022/03/11 04:58:31;;;;;;;20.20;12.85;;;;;;;4.03;54.59;101525.22;5021686;28;20049;-67
2022/03/11 05:00:56;;;;;;;20.45;11.45;;;;;;;4.02;54.48;101528.13;5018967;28;20204;-67
2022/03/11 05:03:21;;;;;;;20.48;12.65;;;;;;;4.02;54.62;101522.69;5023185;28;20427;-67
2022/03/11 05:05:46;;;;;;;19.42;11.90;;;;;;;4.00;54.59;101522.00;5041374;28;20033;-67
2022/03/11 05:08:12;;;;;;;17.98;11.00;;;;;;;4.00;54.43;101520.13;5023482;28;20033;-66
2022/03/11 05:10:37;;;;;;;19.00;11.85;;;;;;;3.97;54.73;101515.06;5021744;28;20037;-67
2022/03/11 05:13:02;;;;;;;21.88;12.40;;;;;;;4.03;53.88;101503.47;5022295;28;20393;-67
2022/03/11 05:15:27;;;;;;;23.48;12.55;;;;;;;4.02;54.34;101507.22;5022465;28;20045;-67
2022/03/11 05:17:53;;;;;;;22.85;12.93;;;;;;;4.02;54.57;101506.38;5022129;28;20021;-67
2022/03/11 05:20:18;;;;;;;20.15;11.23;;;;;;;4.03;54.19;101505.34;5022081;28;20042;-67
2022/03/11 05:22:44;;;;;;;20.08;11.68;;;;;;;4.07;54.18;101509.44;5023258;28;20025;-67
2022/03/11 05:25:10;;;;;;;18.08;11.45;;;;;;;4.06;54.56;101508.59;5020260;28;20035;-66
2022/03/11 05:27:37;;;;;;;18.10;11.07;;;;;;;4.03;54.83;101503.47;5022562;28;20033;-67
2022/03/11 05:30:04;;;;;;;21.85;12.13;;;;;;;4.11;54.20;101503.50;5039005;28;20037;-67
2022/03/11 05:32:29;;;;;;;22.40;12.27;;;;;;;4.11;54.22;101503.50;5020973;28;20096;-67
2022/03/11 05:34:55;;;;;;;20.70;11.88;;;;;;;4.12;54.00;101501.63;5009937;28;20052;-67
2022/03/11 05:37:20;;;;;;;20.45;11.90;;;;;;;4.15;53.84;101502.09;5022095;28;20099;-67
2022/03/11 05:39:45;;;;;;;19.55;11.98;;;;;;;4.19;53.76;101485.44;5042522;28;20032;-67
2022/03/11 05:42:10;;;;;;;19.83;12.05;;;;;;;4.20;53.72;101498.00;5026054;28;20466;-66
2022/03/11 05:44:36;;;;;;;19.15;11.85;;;;;;;4.19;53.57;101496.31;5037956;28;20066;-66
2022/03/11 05:47:01;;;;;;;20.85;12.07;;;;;;;4.23;53.96;101498.53;5034129;28;20048;-67
2022/03/11 05:49:28;;;;;;;21.30;11.82;;;;;;;4.25;53.80;101503.78;5022488;28;20053;-67
2022/03/11 05:51:53;;;;;;;18.02;11.38;;;;;;;4.19;54.06;101493.59;5018488;28;20390;-67
2022/03/11 05:54:19;;;;;;;21.00;12.65;;;;;;;4.09;54.54;101496.50;5021591;28;20125;-67
2022/03/11 05:56:44;;;;;;;17.80;11.73;;;;;;;4.06;54.79;101486.00;5021761;28;20013;-67
2022/03/11 05:59:09;;;;;;;20.35;11.30;;;;;;;4.13;54.23;101497.88;5021474;28;20429;-67
2022/03/11 06:01:35;;;;;;;18.67;11.38;;;;;;;4.13;54.85;101497.88;5033384;28;20472;-67
2022/03/11 06:04:04;;;;;;;23.08;12.48;;;;;;;4.08;55.07;101495.66;5014385;28;20022;-67
2022/03/11 06:06:33;;;;;;;20.48;12.38;;;;;;;4.15;54.18;101488.50;5020320;28;20041;-68
2022/03/11 06:08:59;;;;;;;21.58;12.35;;;;;;;4.25;54.81;101492.91;5020052;28;20163;-69
2022/03/11 06:11:27;;;;;;;22.40;12.25;;;;;;;4.27;54.63;101490.88;5021579;28;20139;-67
2022/03/11 06:13:52;;;;;;;22.05;11.85;;;;;;;4.21;54.66;101491.56;5024860;28;20090;-67
2022/03/11 06:16:17;;;;;;;19.38;11.95;;;;;;;4.22;55.12;101488.69;5030914;28;20017;-67
2022/03/11 06:18:42;;;;;;;20.50;11.90;;;;;;;4.26;54.70;101487.31;5034840;28;20033;-67
2022/03/11 06:21:08;;;;;;;19.98;12.73;;;;;;;4.28;54.55;101489.84;5022114;28;20079;-67
2022/03/11 06:23:35;;;;;;;19.30;12.75;;;;;;;4.29;54.55;101491.53;5022678;28;20028;-67
2022/03/11 06:26:01;;;;;;;19.90;11.67;;;;;;;4.31;55.24;101493.09;5020745;28;20459;-67
2022/03/11 06:28:26;;;;;;;20.33;12.13;;;;;;;4.37;54.75;101494.25;5020432;28;20037;-67
2022/03/11 06:30:51;;;;;;;20.38;12.10;;;;;;;4.41;54.68;101490.16;5021490;28;20041;-67
2022/03/11 06:33:16;;;;;;;21.70;12.27;;;;;;;4.45;54.28;101490.66;5027543;28;20108;-67
2022/03/11 06:35:42;;;;;;;21.70;12.32;;;;;;;4.55;54.39;101494.84;5039381;28;20033;-67
2022/03/11 06:38:07;;;;;;;22.73;12.23;;;;;;;4.55;53.97;101492.13;5025692;28;20034;-67
2022/03/11 06:40:33;;;;;;;21.55;12.35;;;;;;;4.60;53.89;101506.06;5022002;28;20075;-67
2022/03/11 06:42:58;;;;;;;23.13;12.43;;;;;;;4.67;53.80;101504.34;5024675;28;20030;-67
2022/03/11 06:45:23;;;;;;;22.10;12.45;;;;;;;4.70;53.43;101494.97;5043556;28;20029;-67
2022/03/11 06:47:49;;;;;;;21.67;12.82;;;;;;;4.78;53.46;101491.38;5044798;28;20726;-67
2022/03/11 06:50:16;;;;;;;20.75;11.77;;;;;;;4.91;53.02;101497.09;5036200;28;20495;-66
2022/03/11 06:52:42;;;;;;;24.23;13.07;;;;;;;4.94;53.96;101500.31;5032444;28;20079;-67
2022/03/11 06:55:08;;;;;;;23.77;13.38;;;;;;;5.00;54.06;101489.72;5036609;28;20029;-67
2022/03/11 06:57:34;;;;;;;19.95;12.63;;;;;;;5.06;54.01;101491.72;5045545;28;20051;-67
2022/03/11 07:00:00;;;;;;;20.88;12.15;;;;;;;5.14;53.17;101498.00;5025968;28;20045;-67
2022/03/11 07:02:25;;;;;;;23.60;13.40;;;;;;;5.30;53.09;101491.59;5023298;28;20029;-67
2022/03/11 07:04:50;;;;;;;21.35;14.20;;;;;;;5.60;51.67;101491.72;5024377;28;20028;-67
2022/03/11 07:07:16;;;;;;;22.70;12.63;;;;;;;5.67;51.57;101488.06;5025552;28;20025;-67
2022/03/11 07:09:41;;;;;;;24.48;12.73;;;;;;;5.63;51.72;101481.31;5023219;28;20035;-67
2022/03/11 07:12:06;;;;;;;20.20;12.25;;;;;;;5.64;51.95;101476.72;5034376;28;20550;-67
2022/03/11 07:14:35;;;;;;;22.58;13.15;;;;;;;5.73;51.40;101481.91;5016827;28;20459;-67
2022/03/11 07:17:04;;;;;;;24.80;12.93;;;;;;;5.84;51.82;101477.06;5011444;28;20060;-67
2022/03/11 07:19:30;;;;;;;23.80;13.73;;;;;;;5.88;51.91;101475.63;5032384;28;20034;-67
2022/03/11 07:21:57;;;;;;;26.00;13.88;;;;;;;5.90;51.83;101487.22;5022663;28;20511;-67
2022/03/11 07:24:22;;;;;;;26.90;13.00;;;;;;;6.04;51.08;101477.41;5009523;28;20038;-68
2022/03/11 07:26:47;;;;;;;22.98;12.63;;;;;;;6.18;50.40;101469.25;5037201;28;20036;-67
2022/03/11 07:29:13;;;;;;;21.85;12.57;;;;;;;6.29;51.09;101478.00;5045664;28;20395;-67
2022/03/11 07:31:38;;;;;;;21.38;13.57;;;;;;;6.42;50.63;101475.44;5039063;28;20144;-68
2022/03/11 07:34:03;;;;;;;19.98;12.60;;;;;;;6.46;49.81;101479.50;5039282;28;20057;-68
2022/03/11 07:36:29;;;;;;;25.08;14.20;;;;;;;6.60;49.91;101478.66;5044476;28;20086;-68
2022/03/11 07:38:54;;;;;;;24.30;14.07;;;;;;;6.65;49.45;101478.94;5032196;28;20064;-68
2022/03/11 07:41:20;;;;;;;20.55;13.73;;;;;;;6.85;48.39;101475.63;5021369;28;20029;-68
2022/03/11 07:43:46;;;;;;;20.38;13.65;;;;;;;7.08;48.89;101470.00;5023414;28;20450;-68
2022/03/11 07:46:11;;;;;;;21.20;13.07;;;;;;;7.24;47.60;101473.34;5022913;28;20029;-68
2022/03/11 07:48:38;;;;;;;21.95;12.93;;;;;;;7.35;47.91;101472.00;5031169;28;20328;-67
2022/03/11 07:51:03;;;;;;;26.13;13.70;;;;;;;7.33;48.24;101465.03;5025152;28;20105;-68
2022/03/11 07:53:29;;;;;;;22.77;14.05;;;;;;;7.36;47.40;101468.22;5041030;28;20143;-67
2022/03/11 07:55:54;;;;;;;25.50;13.45;;;;;;;7.38;47.20;101466.13;5038283;28;20037;-67
2022/03/11 07:58:21;;;;;;;24.33;13.27;;;;;;;7.37;47.37;101467.19;5029167;28;20033;-67
2022/03/11 08:00:48;;;;;;;21.77;13.50;;;;;;;7.41;47.18;101454.81;5017734;28;20049;-67
2022/03/11 08:03:14;;;;;;;24.92;14.00;;;;;;;7.56;47.20;101457.50;5023349;28;20021;-67
2022/03/11 08:05:39;;;;;;;24.58;13.43;;;;;;;7.73;47.62;101453.44;5021365;28;20040;-66
2022/03/11 08:08:04;;;;;;;23.45;14.18;;;;;;;8.11;46.06;101455.84;5020219;28;20038;-67
2022/03/11 08:10:33;;;;;;;23.38;13.85;;;;;;;8.47;44.94;101447.47;5017259;28;20077;-67
2022/03/11 08:12:59;;;;;;;23.42;13.43;;;;;;;9.02;44.17;101450.22;5023516;28;20033;-67
2022/03/11 08:15:24;;;;;;;24.70;14.75;;;;;;;9.56;43.69;101449.28;5023620;28;20021;-67
2022/03/11 08:17:50;;;;;;;22.45;14.68;;;;;;;10.18;41.98;101441.66;5023542;28;20079;-67
2022/03/11 08:20:15;;;;;;;20.65;13.25;;;;;;;10.17;41.61;101435.34;5021963;28;20022;-67
2022/03/11 08:22:41;;;;;;;21.67;13.93;;;;;;;9.96;41.86;101439.16;5023560;28;20029;-67
2022/03/11 08:25:08;;;;;;;22.88;14.63;;;;;;;9.74;42.28;101444.03;5023443;28;20034;-67
2022/03/11 08:27:34;;;;;;;21.95;14.27;;;;;;;10.20;41.28;101431.34;5024271;28;20036;-67
2022/03/11 08:29:59;;;;;;;23.83;14.55;;;;;;;10.51;40.02;101430.66;5021362;28;20660;-67
2022/03/11 08:32:24;;;;;;;24.23;12.90;;;;;;;10.30;40.27;101435.34;5021348;28;20053;-66
2022/03/11 08:34:50;;;;;;;24.58;14.52;;;;;;;10.95;41.70;101431.72;5019712;28;20025;-67
2022/03/11 08:37:15;;;;;;;28.05;16.20;;;;;;;11.42;38.91;101425.75;5003099;28;20033;-66
2022/03/11 08:39:41;;;;;;;23.23;15.30;;;;;;;11.78;37.57;101415.13;5015507;28;20022;-66
2022/03/11 08:42:06;;;;;;;22.88;14.73;;;;;;;12.26;38.51;101412.53;5023502;28;20021;-66
2022/03/11 08:44:32;;;;;;;20.35;13.38;;;;;;;12.07;36.78;101430.13;5021592;28;20025;-66
2022/03/11 08:46:57;;;;;;;23.27;14.55;;;;;;;11.63;38.00;101426.44;5022452;28;20026;-66
2022/03/11 08:49:22;;;;;;;22.85;15.60;;;;;;;11.16;38.68;101428.69;5021793;28;20071;-66
2022/03/11 08:51:48;;;;;;;24.20;15.43;;;;;;;11.39;38.15;101419.84;5019589;28;20488;-65
2022/03/11 08:54:13;;;;;;;25.20;13.82;;;;;;;11.54;38.36;101422.28;5021587;28;20108;-66
2022/03/11 08:56:40;;;;;;;24.55;14.75;;;;;;;11.81;38.12;101422.91;5022736;28;20562;-66
2022/03/11 08:59:05;;;;;;;22.50;13.95;;;;;;;12.14;37.83;101414.38;5023724;28;20431;-66
2022/03/11 09:01:30;;;;;;;23.45;15.25;;;;;;;12.26;37.10;101422.72;5020043;28;20087;-66
2022/03/11 09:03:55;;;;;;;22.63;14.88;;;;;;;12.11;37.06;101420.34;5021894;28;20034;-65
2022/03/11 09:06:21;;;;;;;25.40;15.48;;;;;;;12.48;37.24;101414.88;5022380;28;20108;-65
2022/03/11 09:08:46;;;;;;;22.25;15.48;;;;;;;12.79;36.97;101419.38;5021790;28;20051;-66
2022/03/11 09:11:12;;;;;;;24.52;14.82;;;;;;;12.87;37.42;101427.31;5019312;28;20064;-65
2022/03/11 09:13:37;;;;;;;23.02;13.88;;;;;;;12.92;35.80;101417.25;5020151;28;20152;-66
2022/03/11 09:16:04;;;;;;;19.77;12.68;;;;;;;13.01;35.44;101417.78;5021536;28;20112;-66
2022/03/11 09:18:29;;;;;;;21.10;14.88;;;;;;;13.19;35.51;101422.44;5022680;28;20038;-66
2022/03/11 09:20:55;;;;;;;24.17;13.23;;;;;;;13.64;35.01;101403.53;5020942;28;20091;-65
2022/03/11 09:23:20;;;;;;;21.48;14.57;;;;;;;14.09;34.23;101402.97;5022767;28;20052;-65
2022/03/11 09:25:46;;;;;;;22.67;14.00;;;;;;;14.78;34.01;101392.03;5020178;28;20026;-66
2022/03/11 09:28:11;;;;;;;22.35;14.15;;;;;;;15.51;32.28;101385.69;5017778;28;20337;-69
2022/03/11 09:30:36;;;;;;;26.50;14.88;;;;;;;16.00;31.47;101394.25;5020521;28;20590;-66
2022/03/11 09:33:02;;;;;;;25.20;14.05;;;;;;;16.41;30.56;101392.06;5022218;28;20021;-66
2022/03/11 09:35:27;;;;;;;22.45;14.30;;;;;;;16.91;30.03;101382.75;5020298;28;20437;-66
2022/03/11 09:37:52;;;;;;;26.15;14.65;;;;;;;17.46;29.50;101384.44;5020657;28;20107;-66
2022/03/11 09:40:18;;;;;;;24.90;15.32;;;;;;;18.30;29.51;101383.72;5021243;28;20026;-66
2022/03/11 09:42:44;;;;;;;23.23;14.77;;;;;;;18.46;28.69;101381.03;5022634;28;20492;-66
2022/03/11 09:45:11;;;;;;;24.43;14.50;;;;;;;18.28;28.03;101385.91;5020531;28;20052;-66
2022/03/11 09:47:42;;;;;;;23.88;14.63;;;;;;;18.25;28.33;101375.34;5021304;28;20064;-66
2022/03/11 09:50:08;;;;;;;26.42;14.35;;;;;;;18.11;27.98;101374.16;5022394;28;20025;-66
2022/03/11 09:52:34;;;;;;;24.20;15.73;;;;;;;18.82;28.26;101362.56;5022664;28;20036;-66
2022/03/11 09:54:59;;;;;;;23.95;14.70;;;;;;;19.37;28.64;101361.00;5021332;28;20432;-66
2022/03/11 09:57:26;;;;;;;23.42;14.63;;;;;;;19.96;27.37;101352.09;5019121;28;20474;-65
2022/03/11 09:59:51;;;;;;;25.35;14.88;;;;;;;19.47;27.57;101349.03;5022294;28;20503;-65
2022/03/11 10:02:17;;;;;;;21.20;14.27;;;;;;;19.10;27.10;101348.16;5020801;28;20108;-66
2022/03/11 10:04:48;;;;;;;22.65;14.05;;;;;;;20.24;26.55;101333.09;5021921;28;20075;-65
2022/03/11 10:07:39;;;;;;;24.85;14.88;;;;;;;19.98;26.81;101335.94;5018961;28;20060;-65
2022/03/11 10:10:16;;;;;;;25.10;14.65;;;;;;;20.52;26.87;101340.81;5016974;28;20048;-65
2022/03/11 10:12:44;;;;;;;27.42;15.02;;;;;;;20.19;26.12;101336.72;5020148;28;20036;-66
2022/03/11 10:15:11;;;;;;;26.38;15.85;;;;;;;20.15;27.05;101330.84;5019920;28;20021;-65
2022/03/11 10:17:38;;;;;;;25.88;15.65;;;;;;;20.37;25.59;101326.88;5021659;28;20092;-65
2022/03/11 10:20:05;;;;;;;23.45;15.80;;;;;;;20.00;26.25;101328.09;5022588;28;20033;-66
2022/03/11 10:22:32;;;;;;;24.00;14.80;;;;;;;20.43;25.69;101323.81;5019700;28;20029;-65
2022/03/11 10:25:00;;;;;;;24.35;15.40;;;;;;;19.93;26.26;101322.00;5020785;28;20082;-65
2022/03/11 10:27:26;;;;;;;26.20;15.68;;;;;;;20.29;27.21;101319.94;5020045;28;20344;-65
2022/03/11 10:29:55;;;;;;;25.13;16.02;;;;;;;20.70;25.41;101320.63;5022257;28;20029;-65
2022/03/11 10:32:26;;;;;;;25.38;16.17;;;;;;;21.42;25.94;101326.59;5021496;28;20033;-65
2022/03/11 10:34:52;;;;;;;27.85;15.77;;;;;;;21.60;25.34;101316.69;5021073;28;20025;-66
2022/03/11 10:37:18;;;;;;;25.35;14.98;;;;;;;21.48;25.15;101316.22;5041295;28;20024;-66
2022/03/11 10:39:45;;;;;;;25.90;16.60;;;;;;;21.10;25.44;101313.13;5041922;28;20029;-65
2022/03/11 10:42:29;;;;;;;27.48;16.17;;;;;;;21.57;26.35;101299.66;5042662;28;20150;-65
2022/03/11 10:45:10;;;;;;;28.45;15.98;;;;;;;21.64;25.75;101314.94;5025957;28;20038;-65
2022/03/11 10:47:38;;;;;;;22.83;15.90;;;;;;;21.07;24.70;101307.28;5014715;28;20022;-65
2022/03/11 10:50:09;;;;;;;31.50;17.63;;;;;;;20.90;25.65;101307.69;5017640;28;20370;-66
2022/03/11 10:52:48;;;;;;;30.42;17.48;;;;;;;21.38;24.70;101294.78;5021448;28;20033;-66
2022/03/11 10:55:28;;;;;;;28.13;16.55;;;;;;;21.73;25.40;101290.81;5011641;28;20116;-66
2022/03/11 10:58:05;;;;;;;27.70;17.20;;;;;;;21.70;25.79;101294.22;5020755;28;20128;-66
2022/03/11 11:00:35;;;;;;;28.20;16.42;;;;;;;21.83;24.94;101298.28;5022129;28;20090;-66
2022/03/11 11:03:06;;;;;;;24.45;16.20;;;;;;;21.98;24.50;101288.88;5021385;28;20120;-66
2022/03/11 11:05:32;;;;;;;32.45;16.65;;;;;;;22.07;24.75;101289.06;5018404;28;20412;-66
2022/03/11 11:07:59;;;;;;;38.17;18.08;;;;;;;22.53;23.43;101286.56;5019168;28;20973;-66
2022/03/11 11:10:26;;;;;;;34.05;19.02;;;;;;;22.51;24.27;101280.44;5019171;28;20537;-66